createdAt,value
2024-05-09T00:00:36.451Z,88.20
2024-05-09T00:01:46.183Z,88.30
2024-05-09T00:02:49.848Z,88.40
2024-05-09T00:03:56.271Z,88.30
2024-05-09T00:05:00.091Z,88.30
2024-05-09T00:06:11.615Z,88.30
2024-05-09T00:07:15.639Z,88.30
2024-05-09T00:08:22.882Z,88.30
2024-05-09T00:09:26.922Z,88.30
2024-05-09T00:10:37.214Z,88.20
2024-05-09T00:11:43.349Z,88.20
2024-05-09T00:12:50.274Z,88.20
2024-05-09T00:13:54.113Z,88.20
2024-05-09T00:15:00.460Z,88.20
2024-05-09T00:16:04.569Z,88.10
2024-05-09T00:17:11.367Z,88.10
2024-05-09T00:18:17.362Z,88.10
2024-05-09T00:19:24.745Z,88.10
2024-05-09T00:20:36.967Z,88.10
2024-05-09T00:21:49.014Z,88.10
2024-05-09T00:22:52.602Z,88.00
2024-05-09T00:23:58.953Z,88.00
2024-05-09T00:25:02.952Z,88.00
2024-05-09T00:26:09.515Z,88.00
2024-05-09T00:27:13.562Z,88.00
2024-05-09T00:28:20.152Z,88.00
2024-05-09T00:29:24.186Z,88.00
2024-05-09T00:30:36.201Z,88.00
2024-05-09T00:31:41.117Z,88.00
2024-05-09T00:32:47.889Z,88.00
2024-05-09T00:33:52.059Z,88.00
2024-05-09T00:34:58.925Z,88.00
2024-05-09T00:36:02.717Z,88.00
2024-05-09T00:37:12.029Z,88.00
2024-05-09T00:38:18.425Z,88.00
2024-05-09T00:39:25.002Z,88.10
2024-05-09T00:40:39.064Z,88.10
2024-05-09T00:41:47.933Z,88.10
2024-05-09T00:42:51.949Z,88.10
2024-05-09T00:44:01.143Z,88.10
2024-05-09T00:45:06.994Z,88.10
2024-05-09T00:46:14.109Z,88.10
2024-05-09T00:47:18.493Z,88.10
2024-05-09T00:48:25.315Z,88.10
2024-05-09T00:49:30.113Z,88.20
2024-05-09T00:50:38.029Z,88.20
2024-05-09T00:51:43.658Z,88.20
2024-05-09T00:52:53.381Z,88.20
2024-05-09T00:53:57.094Z,88.30
2024-05-09T00:55:04.515Z,88.30
2024-05-09T00:56:12.590Z,88.30
2024-05-09T00:57:21.136Z,88.30
2024-05-09T00:58:28.446Z,88.30
2024-05-09T00:59:39.215Z,88.30
2024-05-09T01:00:43.300Z,88.30
2024-05-09T01:01:51.105Z,88.30
2024-05-09T01:02:55.259Z,88.20
2024-05-09T01:04:02.837Z,88.30
2024-05-09T01:05:08.329Z,88.30
2024-05-09T01:06:16.281Z,88.30
2024-05-09T01:07:20.472Z,88.30
2024-05-09T01:08:32.388Z,88.30
2024-05-09T01:09:36.561Z,88.30
2024-05-09T01:10:45.201Z,88.20
2024-05-09T01:11:51.173Z,88.30
2024-05-09T01:12:57.887Z,88.30
2024-05-09T01:14:01.592Z,88.30
2024-05-09T01:15:06.181Z,88.30
2024-05-09T01:16:13.389Z,88.30
2024-05-09T01:17:18.438Z,88.20
2024-05-09T01:18:25.260Z,88.30
2024-05-09T01:19:31.606Z,88.20
2024-05-09T01:20:42.352Z,88.20
2024-05-09T01:21:48.120Z,88.30
2024-05-09T01:22:56.515Z,88.30
2024-05-09T01:24:03.363Z,88.30
2024-05-09T01:25:13.594Z,88.30
2024-05-09T01:26:17.657Z,88.20
2024-05-09T01:27:22.032Z,88.30
2024-05-09T01:28:28.966Z,88.20
2024-05-09T01:29:33.124Z,88.20
2024-05-09T01:30:40.409Z,88.20
2024-05-09T01:31:45.245Z,88.20
2024-05-09T01:32:51.905Z,88.20
2024-05-09T01:33:56.380Z,88.20
2024-05-09T01:35:03.291Z,88.20
2024-05-09T01:36:08.062Z,88.20
2024-05-09T01:37:14.404Z,88.20
2024-05-09T01:38:20.149Z,88.20
2024-05-09T01:39:29.436Z,88.20
2024-05-09T01:40:37.962Z,88.20
2024-05-09T01:41:46.368Z,88.20
2024-05-09T01:42:50.512Z,88.20
2024-05-09T01:43:57.145Z,88.30
2024-05-09T01:45:00.968Z,88.30
2024-05-09T01:46:08.006Z,88.30
2024-05-09T01:47:14.995Z,88.30
2024-05-09T01:48:21.841Z,88.30
2024-05-09T01:49:26.114Z,88.30
2024-05-09T01:50:38.487Z,88.30
2024-05-09T01:51:45.270Z,88.30
2024-05-09T01:52:51.883Z,88.40
2024-05-09T01:53:56.792Z,88.40
2024-05-09T01:55:07.195Z,88.40
2024-05-09T01:56:11.763Z,88.40
2024-05-09T01:57:18.353Z,88.40
2024-05-09T01:58:22.166Z,88.50
2024-05-09T01:59:28.994Z,88.50
2024-05-09T02:00:40.301Z,88.50
2024-05-09T02:01:56.672Z,88.50
2024-05-09T02:03:02.024Z,88.50
2024-05-09T02:04:09.166Z,88.50
2024-05-09T02:05:17.351Z,88.50
2024-05-09T02:06:23.937Z,88.50
2024-05-09T02:07:28.771Z,88.50
2024-05-09T02:08:35.244Z,88.50
2024-05-09T02:09:39.040Z,88.50
2024-05-09T02:10:49.168Z,88.50
2024-05-09T02:11:54.385Z,88.50
2024-05-09T02:13:03.516Z,88.60
2024-05-09T02:14:07.365Z,88.60
2024-05-09T02:15:14.082Z,88.70
2024-05-09T02:16:18.048Z,88.70
2024-05-09T02:17:24.760Z,88.70
2024-05-09T02:18:28.763Z,88.80
2024-05-09T02:19:35.607Z,88.80
2024-05-09T02:20:41.342Z,88.90
2024-05-09T02:21:48.078Z,88.90
2024-05-09T02:22:52.364Z,88.90
2024-05-09T02:23:58.873Z,88.90
2024-05-09T02:25:03.288Z,88.90
2024-05-09T02:26:10.242Z,88.90
2024-05-09T02:27:17.143Z,88.90
2024-05-09T02:28:22.359Z,88.90
2024-05-09T02:29:28.847Z,88.90
2024-05-09T02:30:39.972Z,88.90
2024-05-09T02:31:48.614Z,89.00
2024-05-09T02:32:52.723Z,89.00
2024-05-09T02:33:56.911Z,89.00
2024-05-09T02:35:03.479Z,89.00
2024-05-09T02:36:09.415Z,89.10
2024-05-09T02:37:13.822Z,89.10
2024-05-09T02:38:20.528Z,89.10
2024-05-09T02:39:28.038Z,89.10
2024-05-09T02:40:37.208Z,89.10
2024-05-09T02:41:48.111Z,89.10
2024-05-09T02:42:51.754Z,89.10
2024-05-09T02:43:55.572Z,89.10
2024-05-09T02:44:59.346Z,89.10
2024-05-09T02:46:06.375Z,89.10
2024-05-09T02:47:10.091Z,89.10
2024-05-09T02:48:16.428Z,89.20
2024-05-09T02:49:23.153Z,89.20
2024-05-09T02:50:34.449Z,89.20
2024-05-09T02:51:42.888Z,89.20
2024-05-09T02:52:49.479Z,89.20
2024-05-09T02:53:53.195Z,89.30
2024-05-09T02:54:57.193Z,89.30
2024-05-09T02:56:00.942Z,89.40
2024-05-09T02:57:10.045Z,89.40
2024-05-09T02:58:14.069Z,89.40
2024-05-09T02:59:17.742Z,89.40
2024-05-09T03:00:26.741Z,89.40
2024-05-09T03:01:42.322Z,89.40
2024-05-09T03:02:46.295Z,89.40
2024-05-09T03:03:51.792Z,89.40
2024-05-09T03:04:55.832Z,89.40
2024-05-09T03:06:02.441Z,89.40
2024-05-09T03:07:06.985Z,89.40
2024-05-09T03:08:11.150Z,89.50
2024-05-09T03:09:15.124Z,89.50
2024-05-09T03:10:25.667Z,89.50
2024-05-09T03:11:32.370Z,89.50
2024-05-09T03:12:39.449Z,89.50
2024-05-09T03:13:45.953Z,89.50
2024-05-09T03:14:51.728Z,89.50
2024-05-09T03:15:55.386Z,89.60
2024-05-09T03:16:59.640Z,89.60
2024-05-09T03:18:07.154Z,89.60
2024-05-09T03:19:12.350Z,89.60
2024-05-09T03:20:23.386Z,89.60
2024-05-09T03:21:34.404Z,89.50
2024-05-09T03:22:39.097Z,89.50
2024-05-09T03:23:43.936Z,89.50
2024-05-09T03:24:48.535Z,89.50
2024-05-09T03:25:55.171Z,89.50
2024-05-09T03:26:58.942Z,89.50
2024-05-09T03:28:06.498Z,89.50
2024-05-09T03:29:13.758Z,89.50
2024-05-09T03:30:29.251Z,89.50
2024-05-09T03:31:41.306Z,89.50
2024-05-09T03:32:45.753Z,89.50
2024-05-09T03:33:52.698Z,89.50
2024-05-09T03:34:57.230Z,89.50
2024-05-09T03:36:01.789Z,89.40
2024-05-09T03:37:08.782Z,89.40
2024-05-09T03:38:13.123Z,89.40
2024-05-09T03:39:20.735Z,89.40
2024-05-09T03:40:28.960Z,89.40
2024-05-09T03:41:35.195Z,89.40
2024-05-09T03:42:44.903Z,89.50
2024-05-09T03:43:51.539Z,89.50
2024-05-09T03:44:58.329Z,89.50
2024-05-09T03:46:05.909Z,89.60
2024-05-09T03:47:10.550Z,89.60
2024-05-09T03:48:15.258Z,89.70
2024-05-09T03:49:24.834Z,89.70
2024-05-09T03:50:33.925Z,89.70
2024-05-09T03:51:39.609Z,89.70
2024-05-09T03:52:46.253Z,89.70
2024-05-09T03:53:50.349Z,89.70
2024-05-09T03:54:56.475Z,89.70
2024-05-09T03:56:02.676Z,89.70
2024-05-09T03:57:11.134Z,89.80
2024-05-09T03:58:15.142Z,89.80
2024-05-09T03:59:22.509Z,89.80
2024-05-09T04:00:36.951Z,89.80
2024-05-09T04:01:43.351Z,89.80
2024-05-09T04:02:49.519Z,89.80
2024-05-09T04:03:56.328Z,89.80
2024-05-09T04:05:00.290Z,89.80
2024-05-09T04:06:07.928Z,89.90
2024-05-09T04:07:15.572Z,89.90
2024-05-09T04:08:19.539Z,89.90
2024-05-09T04:09:23.891Z,89.90
2024-05-09T04:10:33.885Z,89.90
2024-05-09T04:11:46.859Z,89.90
2024-05-09T04:12:50.651Z,89.90
2024-05-09T04:13:54.970Z,90.00
2024-05-09T04:15:01.542Z,90.00
2024-05-09T04:16:14.120Z,90.00
2024-05-09T04:17:18.058Z,90.00
2024-05-09T04:18:25.435Z,90.00
2024-05-09T04:19:29.932Z,90.10
2024-05-09T04:20:39.752Z,90.20
2024-05-09T04:21:45.184Z,90.30
2024-05-09T04:22:51.615Z,90.40
2024-05-09T04:23:59.550Z,90.50
2024-05-09T04:25:03.822Z,90.50
2024-05-09T04:26:09.345Z,90.70
2024-05-09T04:27:16.279Z,90.80
2024-05-09T04:28:21.015Z,90.80
2024-05-09T04:29:25.800Z,90.80
2024-05-09T04:30:38.552Z,90.90
2024-05-09T04:31:48.591Z,91.00
2024-05-09T04:32:53.205Z,91.00
2024-05-09T04:33:57.559Z,90.90
2024-05-09T04:35:02.495Z,90.90
2024-05-09T04:36:11.332Z,90.80
2024-05-09T04:37:15.946Z,90.50
2024-05-09T04:38:20.248Z,90.40
2024-05-09T04:39:24.691Z,90.30
2024-05-09T04:40:35.448Z,90.10
2024-05-09T04:41:41.303Z,90.00
2024-05-09T04:42:45.918Z,89.80
2024-05-09T04:43:54.053Z,89.70
2024-05-09T04:44:58.814Z,89.60
2024-05-09T04:46:05.987Z,89.50
2024-05-09T04:47:10.425Z,89.50
2024-05-09T04:48:17.776Z,89.60
2024-05-09T04:49:22.226Z,89.70
2024-05-09T04:50:35.579Z,89.80
2024-05-09T04:51:45.940Z,89.90
2024-05-09T04:52:49.935Z,89.90
2024-05-09T04:53:53.984Z,90.00
2024-05-09T04:54:58.982Z,90.10
2024-05-09T04:56:06.214Z,90.10
2024-05-09T04:57:10.487Z,90.00
2024-05-09T04:58:14.582Z,89.90
2024-05-09T04:59:22.383Z,89.80
2024-05-09T05:00:34.702Z,89.80
2024-05-09T05:01:43.831Z,89.50
2024-05-09T05:02:50.266Z,89.40
2024-05-09T05:03:56.148Z,89.30
2024-05-09T05:05:01.464Z,89.00
2024-05-09T05:06:05.823Z,88.90
2024-05-09T05:07:16.160Z,88.70
2024-05-09T05:08:20.815Z,88.40
2024-05-09T05:09:25.021Z,88.10
2024-05-09T05:10:35.911Z,87.90
2024-05-09T05:11:47.157Z,87.80
2024-05-09T05:13:09.515Z,87.50
2024-05-09T05:14:14.143Z,87.30
2024-05-09T05:15:17.724Z,87.00
2024-05-09T05:16:24.813Z,86.80
2024-05-09T05:17:31.502Z,86.60
2024-05-09T05:18:36.259Z,86.40
2024-05-09T05:19:43.723Z,86.20
2024-05-09T05:20:53.759Z,86.00
2024-05-09T05:21:57.973Z,85.70
2024-05-09T05:23:05.238Z,85.50
2024-05-09T05:24:09.228Z,85.30
2024-05-09T05:25:13.949Z,85.10
2024-05-09T05:26:20.688Z,84.80
2024-05-09T05:27:27.322Z,84.60
2024-05-09T05:28:31.110Z,84.40
2024-05-09T05:29:35.254Z,84.20
2024-05-09T05:30:42.838Z,84.00
2024-05-09T05:31:46.953Z,83.80
2024-05-09T05:32:53.926Z,83.60
2024-05-09T05:33:58.451Z,83.30
2024-05-09T05:35:05.147Z,83.10
2024-05-09T05:36:10.391Z,83.00
2024-05-09T05:37:14.337Z,82.70
2024-05-09T05:38:27.510Z,82.50
2024-05-09T05:39:32.728Z,82.40
2024-05-09T05:40:38.980Z,82.30
2024-05-09T05:41:44.234Z,82.00
2024-05-09T05:42:51.097Z,81.70
2024-05-09T05:43:55.106Z,81.60
2024-05-09T05:45:02.459Z,81.40
2024-05-09T05:46:09.807Z,81.20
2024-05-09T05:47:14.642Z,81.10
2024-05-09T05:48:24.722Z,80.90
2024-05-09T05:49:30.234Z,80.70
2024-05-09T05:50:38.472Z,80.50
2024-05-09T05:51:43.069Z,80.40
2024-05-09T05:52:47.334Z,80.10
2024-05-09T05:53:55.386Z,79.90
2024-05-09T05:54:59.277Z,79.80
2024-05-09T05:56:03.522Z,79.40
2024-05-09T05:58:17.556Z,79.00
2024-05-09T05:59:24.738Z,78.70
2024-05-09T06:00:34.992Z,78.40
2024-05-09T06:01:47.892Z,78.20
2024-05-09T06:02:54.840Z,77.90
2024-05-09T06:04:01.549Z,77.50
2024-05-09T06:05:06.537Z,77.20
2024-05-09T06:06:10.493Z,77.00
2024-05-09T06:07:17.280Z,76.70
2024-05-09T06:08:23.406Z,76.30
2024-05-09T06:09:28.242Z,75.80
2024-05-09T06:10:38.118Z,75.50
2024-05-09T06:11:47.143Z,75.00
2024-05-09T06:12:51.518Z,74.70
2024-05-09T06:13:55.850Z,74.40
2024-05-09T06:15:00.872Z,74.00
2024-05-09T06:16:09.863Z,73.70
2024-05-09T06:17:14.071Z,73.50
2024-05-09T06:18:18.263Z,73.40
2024-05-09T06:19:25.927Z,73.40
2024-05-09T06:20:36.494Z,73.30
2024-05-09T06:21:42.568Z,73.10
2024-05-09T06:22:47.335Z,72.70
2024-05-09T06:23:54.987Z,72.40
2024-05-09T06:24:59.162Z,72.20
2024-05-09T06:26:06.213Z,71.90
2024-05-09T06:27:10.358Z,71.50
2024-05-09T06:28:16.203Z,71.30
2024-05-09T06:29:23.009Z,71.10
2024-05-09T06:30:36.514Z,70.90
2024-05-09T06:31:47.648Z,70.60
2024-05-09T06:32:54.529Z,70.40
2024-05-09T06:33:59.139Z,69.90
2024-05-09T06:35:06.956Z,69.40
2024-05-09T06:36:10.872Z,69.00
2024-05-09T06:37:17.486Z,68.80
2024-05-09T06:38:21.373Z,68.50
2024-05-09T06:39:25.619Z,68.60
2024-05-09T06:40:36.756Z,68.30
2024-05-09T06:41:45.976Z,67.90
2024-05-09T06:42:52.261Z,67.70
2024-05-09T06:43:56.544Z,67.20
2024-05-09T06:45:00.607Z,66.90
2024-05-09T06:46:07.794Z,66.90
2024-05-09T06:47:18.236Z,66.80
2024-05-09T06:48:23.474Z,66.70
2024-05-09T06:49:32.056Z,66.80
2024-05-09T06:50:39.741Z,66.70
2024-05-09T06:52:54.211Z,66.80
2024-05-09T06:53:58.315Z,66.50
2024-05-09T06:55:03.191Z,66.60
2024-05-09T06:56:08.969Z,66.60
2024-05-09T06:57:15.764Z,66.00
2024-05-09T06:58:19.641Z,65.60
2024-05-09T06:59:23.748Z,65.50
2024-05-09T07:00:38.139Z,65.80
2024-05-09T07:01:44.859Z,65.60
2024-05-09T07:02:51.727Z,65.90
2024-05-09T07:03:56.118Z,65.60
2024-05-09T07:05:00.746Z,65.30
2024-05-09T07:06:09.932Z,65.10
2024-05-09T07:07:14.439Z,64.50
2024-05-09T07:08:21.564Z,64.30
2024-05-09T07:09:25.736Z,64.30
2024-05-09T07:10:34.971Z,64.00
2024-05-09T07:11:41.051Z,64.00
2024-05-09T07:12:45.112Z,64.20
2024-05-09T07:13:56.052Z,64.40
2024-05-09T07:15:00.761Z,63.30
2024-05-09T07:16:05.423Z,62.90
2024-05-09T07:17:09.747Z,63.10
2024-05-09T07:18:20.498Z,63.10
2024-05-09T07:19:25.646Z,63.10
2024-05-09T07:20:34.559Z,63.20
2024-05-09T07:21:45.776Z,63.10
2024-05-09T07:22:52.461Z,62.80
2024-05-09T07:23:56.382Z,62.50
2024-05-09T07:25:03.316Z,62.00
2024-05-09T07:26:07.061Z,61.60
2024-05-09T07:28:17.295Z,61.50
2024-05-09T07:29:24.321Z,61.70
2024-05-09T07:30:33.311Z,61.30
2024-05-09T07:31:42.016Z,61.10
2024-05-09T07:32:49.253Z,60.90
2024-05-09T07:33:54.269Z,60.80
2024-05-09T07:34:58.620Z,60.70
2024-05-09T07:36:05.834Z,60.20
2024-05-09T07:37:14.966Z,60.30
2024-05-09T07:38:21.749Z,60.00
2024-05-09T07:39:28.959Z,59.60
2024-05-09T07:40:36.848Z,60.00
2024-05-09T07:41:41.202Z,59.90
2024-05-09T07:42:47.966Z,59.70
2024-05-09T07:43:51.832Z,59.20
2024-05-09T07:45:00.887Z,59.00
2024-05-09T07:50:34.424Z,57.60
2024-05-09T07:53:44.127Z,55.90
2024-05-09T07:54:53.229Z,56.40
2024-05-09T07:55:58.080Z,56.20
2024-05-09T07:57:05.285Z,56.20
2024-05-09T07:58:09.552Z,56.50
2024-05-09T07:59:13.519Z,56.70
2024-05-09T08:00:23.603Z,56.80
2024-05-09T08:01:34.324Z,56.50
2024-05-09T08:02:40.744Z,55.70
2024-05-09T08:03:45.974Z,56.00
2024-05-09T08:04:52.298Z,55.30
2024-05-09T08:05:59.146Z,55.40
2024-05-09T08:07:05.107Z,54.80
2024-05-09T08:08:12.346Z,53.90
2024-05-09T08:09:20.966Z,54.40
2024-05-09T08:10:29.219Z,54.70
2024-05-09T08:11:35.237Z,54.90
2024-05-09T08:12:40.342Z,54.60
2024-05-09T08:13:47.397Z,54.40
2024-05-09T08:14:53.191Z,54.10
2024-05-09T08:15:57.607Z,53.60
2024-05-09T08:17:04.425Z,53.80
2024-05-09T08:18:09.559Z,54.00
2024-05-09T08:19:13.646Z,54.00
2024-05-09T08:20:26.649Z,53.60
2024-05-09T08:21:37.938Z,52.90
2024-05-09T08:22:42.237Z,52.90
2024-05-09T08:23:50.069Z,52.30
2024-05-09T08:24:55.579Z,52.10
2024-05-09T08:26:03.366Z,51.80
2024-05-09T08:27:07.399Z,52.00
2024-05-09T08:28:13.428Z,51.80
2024-05-09T08:29:21.115Z,51.90
2024-05-09T08:30:35.581Z,51.80
2024-05-09T08:31:41.219Z,51.90
2024-05-09T08:32:48.328Z,51.10
2024-05-09T08:33:57.467Z,51.10
2024-05-09T08:35:01.884Z,51.20
2024-05-09T08:36:06.405Z,51.50
2024-05-09T08:37:15.712Z,51.30
2024-05-09T08:38:31.601Z,51.00
2024-05-09T08:39:38.384Z,51.30
2024-05-09T08:40:43.323Z,50.80
2024-05-09T08:41:52.296Z,50.70
2024-05-09T08:43:00.674Z,50.50
2024-05-09T08:44:05.008Z,50.60
2024-05-09T08:45:10.856Z,50.00
2024-05-09T08:46:19.302Z,49.90
2024-05-09T08:47:23.671Z,50.30
2024-05-09T08:48:28.262Z,49.70
2024-05-09T08:49:37.671Z,49.00
2024-05-09T08:50:42.480Z,49.50
2024-05-09T08:51:47.149Z,49.40
2024-05-09T08:53:58.258Z,48.90
2024-05-09T08:55:08.255Z,49.10
2024-05-09T08:56:14.031Z,48.80
2024-05-09T08:57:18.414Z,48.80
2024-05-09T08:58:25.553Z,48.90
2024-05-09T08:59:36.613Z,49.00
2024-05-09T09:00:41.546Z,48.30
2024-05-09T09:01:47.334Z,48.30
2024-05-09T09:02:55.956Z,48.80
2024-05-09T09:04:03.599Z,48.40
2024-05-09T09:05:11.399Z,48.50
2024-05-09T09:06:22.717Z,48.70
2024-05-09T09:07:27.308Z,48.80
2024-05-09T09:08:31.832Z,49.30
2024-05-09T09:09:44.068Z,48.90
2024-05-09T09:10:54.344Z,48.10
2024-05-09T09:11:58.533Z,48.00
2024-05-09T09:13:11.424Z,48.10
2024-05-09T09:14:15.801Z,48.00
2024-05-09T09:15:19.603Z,48.30
2024-05-09T09:16:36.989Z,47.90
2024-05-09T09:18:46.454Z,47.90
2024-05-09T09:19:50.710Z,47.10
2024-05-09T09:21:00.993Z,47.20
2024-05-09T09:22:06.076Z,48.10
2024-05-09T09:23:09.927Z,46.40
2024-05-09T09:24:15.814Z,46.60
2024-05-09T09:25:26.396Z,46.10
2024-05-09T09:26:34.760Z,46.50
2024-05-09T09:27:39.055Z,46.60
2024-05-09T09:28:45.253Z,46.10
2024-05-09T09:29:49.993Z,45.90
2024-05-09T09:30:54.360Z,46.30
2024-05-09T09:32:01.749Z,46.60
2024-05-09T09:33:08.930Z,46.00
2024-05-09T09:34:13.270Z,46.90
2024-05-09T09:35:18.227Z,46.60
2024-05-09T09:36:24.817Z,45.80
2024-05-09T09:37:31.066Z,45.70
2024-05-09T09:38:38.982Z,45.40
2024-05-09T09:39:48.986Z,45.40
2024-05-09T09:40:56.764Z,45.90
2024-05-09T09:42:06.546Z,45.90
2024-05-09T09:43:19.436Z,46.10
2024-05-09T09:44:23.865Z,46.60
2024-05-09T09:45:32.289Z,46.70
2024-05-09T09:46:38.070Z,46.70
2024-05-09T09:47:44.148Z,47.30
2024-05-09T09:48:52.790Z,47.90
2024-05-09T09:49:59.808Z,48.50
2024-05-09T09:51:06.129Z,48.30
2024-05-09T09:52:11.350Z,48.10
2024-05-09T09:53:20.098Z,48.30
2024-05-09T09:54:24.666Z,47.40
2024-05-09T09:55:28.772Z,47.80
2024-05-09T09:56:33.445Z,47.80
2024-05-09T09:57:43.933Z,47.80
2024-05-09T09:58:49.470Z,47.40
2024-05-09T09:59:55.880Z,47.30
2024-05-09T10:01:00.325Z,47.20
2024-05-09T10:02:07.845Z,47.20
2024-05-09T10:03:13.492Z,47.40
2024-05-09T10:04:21.939Z,46.90
2024-05-09T10:05:27.639Z,46.40
2024-05-09T10:06:37.037Z,46.50
2024-05-09T10:07:44.248Z,46.00
2024-05-09T10:08:49.667Z,46.10
2024-05-09T10:09:59.662Z,46.20
2024-05-09T10:11:05.934Z,46.40
2024-05-09T10:12:15.223Z,46.30
2024-05-09T10:13:22.312Z,46.50
2024-05-09T10:14:31.042Z,46.50
2024-05-09T10:15:46.032Z,46.60
2024-05-09T10:16:50.872Z,47.00
2024-05-09T10:17:54.917Z,47.20
2024-05-09T10:19:02.077Z,47.70
2024-05-09T10:20:14.756Z,47.90
2024-05-09T10:21:30.592Z,48.30
2024-05-09T10:22:38.227Z,48.90
2024-05-09T10:23:46.149Z,49.10
2024-05-09T10:24:51.201Z,49.20
2024-05-09T10:26:03.094Z,49.60
2024-05-09T10:27:07.337Z,49.80
2024-05-09T10:28:13.567Z,50.30
2024-05-09T10:29:20.794Z,50.70
2024-05-09T10:30:34.116Z,51.10
2024-05-09T10:31:42.624Z,51.80
2024-05-09T10:32:46.379Z,52.50
2024-05-09T10:33:55.650Z,52.60
2024-05-09T10:35:08.158Z,52.70
2024-05-09T10:36:15.477Z,53.10
2024-05-09T10:37:19.718Z,53.00
2024-05-09T10:38:27.141Z,52.80
2024-05-09T10:39:37.393Z,52.40
2024-05-09T10:40:42.464Z,52.20
2024-05-09T10:41:49.467Z,52.30
2024-05-09T10:42:53.636Z,52.00
2024-05-09T10:43:57.873Z,52.00
2024-05-09T10:45:04.938Z,51.80
2024-05-09T10:46:14.816Z,51.50
2024-05-09T10:47:19.202Z,51.80
2024-05-09T10:48:22.962Z,51.10
2024-05-09T10:49:29.517Z,50.70
2024-05-09T10:50:34.557Z,50.80
2024-05-09T10:51:38.777Z,50.70
2024-05-09T10:52:45.737Z,50.80
2024-05-09T10:53:49.963Z,50.80
2024-05-09T10:54:54.494Z,51.30
2024-05-09T10:55:58.841Z,51.30
2024-05-09T10:57:05.465Z,51.40
2024-05-09T10:58:18.524Z,51.70
2024-05-09T10:59:23.941Z,51.90
2024-05-09T11:00:37.746Z,52.10
2024-05-09T11:01:42.129Z,51.90
2024-05-09T11:02:45.965Z,51.80
2024-05-09T11:03:53.397Z,52.10
2024-05-09T11:04:57.527Z,52.30
2024-05-09T11:06:02.358Z,52.50
2024-05-09T11:07:11.228Z,52.60
2024-05-09T11:08:17.344Z,52.70
2024-05-09T11:09:21.547Z,52.80
2024-05-09T11:10:33.600Z,52.90
2024-05-09T11:11:40.945Z,52.70
2024-05-09T11:12:46.455Z,52.80
2024-05-09T11:13:50.373Z,53.00
2024-05-09T11:14:54.975Z,53.00
2024-05-09T11:16:04.763Z,53.10
2024-05-09T11:17:09.862Z,53.10
2024-05-09T11:18:25.893Z,52.80
2024-05-09T11:19:35.441Z,52.70
2024-05-09T11:20:40.208Z,52.90
2024-05-09T11:21:52.629Z,53.10
2024-05-09T11:22:58.598Z,53.30
2024-05-09T11:24:07.302Z,53.60
2024-05-09T11:25:12.606Z,53.60
2024-05-09T11:26:22.935Z,53.60
2024-05-09T11:27:29.588Z,54.00
2024-05-09T11:28:33.454Z,54.10
2024-05-09T11:29:41.256Z,54.20
2024-05-09T11:30:45.286Z,54.10
2024-05-09T11:31:55.182Z,54.00
2024-05-09T11:33:00.532Z,54.30
2024-05-09T11:34:05.762Z,54.30
2024-05-09T11:35:12.309Z,54.40
2024-05-09T11:36:16.356Z,54.50
2024-05-09T11:37:20.294Z,54.70
2024-05-09T11:38:27.093Z,55.00
2024-05-09T11:39:31.061Z,55.30
2024-05-09T11:40:35.279Z,55.50
2024-05-09T11:41:39.653Z,55.50
2024-05-09T11:42:48.196Z,55.60
2024-05-09T11:43:53.217Z,55.10
2024-05-09T11:44:57.103Z,55.20
2024-05-09T11:46:03.565Z,55.30
2024-05-09T11:47:13.356Z,55.40
2024-05-09T11:48:17.739Z,55.50
2024-05-09T11:49:25.338Z,55.60
2024-05-09T11:50:35.227Z,55.60
2024-05-09T11:51:42.938Z,55.70
2024-05-09T11:52:46.528Z,55.20
2024-05-09T11:53:50.712Z,55.20
2024-05-09T11:54:54.604Z,55.10
2024-05-09T11:56:01.874Z,55.10
2024-05-09T11:57:06.915Z,55.00
2024-05-09T11:58:12.828Z,54.90
2024-05-09T11:59:17.400Z,54.90
2024-05-09T12:00:33.914Z,55.10
2024-05-09T12:01:41.232Z,55.10
2024-05-09T12:02:48.243Z,55.00
2024-05-09T12:03:54.671Z,54.90
2024-05-09T12:05:01.973Z,54.70
2024-05-09T12:06:06.594Z,54.40
2024-05-09T12:07:12.968Z,54.10
2024-05-09T12:08:17.087Z,53.80
2024-05-09T12:09:24.025Z,54.00
2024-05-09T12:10:33.415Z,54.20
2024-05-09T12:11:39.734Z,54.10
2024-05-09T12:12:46.298Z,53.70
2024-05-09T12:13:50.421Z,53.80
2024-05-09T12:14:54.594Z,53.70
2024-05-09T12:16:02.656Z,53.70
2024-05-09T12:17:07.320Z,53.90
2024-05-09T12:18:14.103Z,53.40
2024-05-09T12:19:19.007Z,53.50
2024-05-09T12:20:34.349Z,53.40
2024-05-09T12:21:41.410Z,53.40
2024-05-09T12:22:46.327Z,53.50
2024-05-09T12:23:50.484Z,53.70
2024-05-09T12:24:57.579Z,53.70
2024-05-09T12:26:01.515Z,54.00
2024-05-09T12:27:06.324Z,54.20
2024-05-09T12:28:13.900Z,54.40
2024-05-09T12:29:18.228Z,54.60
2024-05-09T12:30:32.666Z,54.80
2024-05-09T12:31:44.463Z,54.90
2024-05-09T12:32:49.913Z,55.00
2024-05-09T12:33:56.877Z,54.80
2024-05-09T12:35:01.374Z,54.80
2024-05-09T12:36:08.642Z,54.50
2024-05-09T12:37:13.917Z,54.60
2024-05-09T12:38:18.855Z,54.50
2024-05-09T12:39:25.339Z,54.10
2024-05-09T12:40:36.473Z,54.20
2024-05-09T12:41:42.599Z,54.10
2024-05-09T12:42:46.622Z,54.30
2024-05-09T12:43:53.022Z,54.30
2024-05-09T12:44:57.118Z,54.30
2024-05-09T12:46:01.336Z,54.30
2024-05-09T12:47:05.972Z,54.30
2024-05-09T12:48:13.697Z,54.30
2024-05-09T12:49:24.668Z,54.40
2024-05-09T12:50:33.087Z,54.10
2024-05-09T12:51:41.118Z,54.20
2024-05-09T12:52:45.328Z,54.40
2024-05-09T12:53:52.511Z,54.50
2024-05-09T12:54:56.637Z,54.70
2024-05-09T12:56:04.877Z,54.80
2024-05-09T12:57:10.928Z,54.90
2024-05-09T12:58:15.434Z,54.90
2024-05-09T12:59:20.024Z,54.90
2024-05-09T13:00:31.713Z,55.10
2024-05-09T13:01:38.250Z,55.10
2024-05-09T13:02:43.358Z,55.20
2024-05-09T13:03:50.543Z,55.10
2024-05-09T13:04:57.717Z,55.30
2024-05-09T13:06:02.111Z,55.40
2024-05-09T13:07:09.255Z,55.20
2024-05-09T13:08:14.228Z,55.10
2024-05-09T13:09:18.151Z,55.30
2024-05-09T13:10:29.107Z,55.50
2024-05-09T13:11:39.862Z,55.70
2024-05-09T13:12:43.860Z,55.70
2024-05-09T13:13:48.036Z,55.40
2024-05-09T13:14:52.089Z,55.40
2024-05-09T13:15:59.546Z,55.20
2024-05-09T13:17:03.443Z,55.20
2024-05-09T13:18:08.419Z,55.20
2024-05-09T13:19:12.847Z,55.20
2024-05-09T13:20:28.725Z,55.20
2024-05-09T13:21:36.536Z,55.20
2024-05-09T13:22:40.697Z,55.00
2024-05-09T13:23:44.771Z,55.10
2024-05-09T13:24:51.190Z,55.00
2024-05-09T13:25:55.412Z,55.10
2024-05-09T13:26:59.290Z,55.20
2024-05-09T13:28:03.332Z,55.30
2024-05-09T13:29:10.187Z,55.30
2024-05-09T13:30:21.775Z,55.30
2024-05-09T13:31:33.665Z,55.40
2024-05-09T13:32:40.876Z,55.50
2024-05-09T13:33:45.074Z,55.60
2024-05-09T13:34:49.235Z,55.20
2024-05-09T13:35:56.056Z,55.30
2024-05-09T13:37:03.614Z,55.40
2024-05-09T13:38:07.743Z,55.10
2024-05-09T13:39:11.666Z,55.30
2024-05-09T13:40:23.219Z,55.50
2024-05-09T13:41:33.868Z,55.60
2024-05-09T13:42:37.876Z,55.70
2024-05-09T13:43:42.003Z,55.80
2024-05-09T13:44:45.903Z,55.90
2024-05-09T13:45:55.386Z,55.90
2024-05-09T13:46:59.572Z,55.80
2024-05-09T13:48:04.282Z,56.00
2024-05-09T13:49:16.900Z,56.10
2024-05-09T13:50:30.780Z,56.00
2024-05-09T13:51:41.364Z,55.80
2024-05-09T13:52:45.249Z,55.90
2024-05-09T13:53:51.770Z,56.10
2024-05-09T13:54:55.462Z,56.30
2024-05-09T13:55:59.162Z,56.30
2024-05-09T13:57:05.552Z,56.40
2024-05-09T13:58:12.478Z,56.40
2024-05-09T13:59:16.447Z,56.40
2024-05-09T14:00:37.331Z,56.50
2024-05-09T14:01:47.083Z,56.70
2024-05-09T14:02:54.637Z,56.80
2024-05-09T14:03:58.709Z,56.80
2024-05-09T14:05:05.714Z,56.70
2024-05-09T14:06:13.036Z,56.70
2024-05-09T14:07:20.174Z,56.60
2024-05-09T14:08:24.516Z,56.80
2024-05-09T14:09:32.392Z,56.70
2024-05-09T14:10:44.364Z,56.50
2024-05-09T14:11:49.399Z,56.70
2024-05-09T14:12:55.940Z,56.70
2024-05-09T14:14:00.039Z,56.80
2024-05-09T14:15:03.811Z,56.80
2024-05-09T14:16:12.821Z,56.90
2024-05-09T14:17:17.286Z,56.90
2024-05-09T14:18:21.450Z,56.70
2024-05-09T14:19:29.868Z,56.60
2024-05-09T14:20:33.740Z,56.60
2024-05-09T14:21:38.523Z,56.40
2024-05-09T14:22:47.880Z,56.10
2024-05-09T14:23:54.572Z,56.40
2024-05-09T14:24:59.238Z,56.60
2024-05-09T14:26:06.156Z,56.60
2024-05-09T14:27:15.478Z,56.60
2024-05-09T14:28:19.938Z,56.80
2024-05-09T14:29:24.922Z,56.80
2024-05-09T14:30:35.903Z,57.00
2024-05-09T14:31:44.396Z,57.20